sensor_id;sensor_type;location;lat;lon;timestamp;P1;durP1;ratioP1;P2;durP2;ratioP2
48765;SDS011;65794;51.836;5.002;2023-07-30T00:01:57;14.13;;;2.13;;
48765;SDS011;65794;51.836;5.002;2023-07-30T00:04:26;11.35;;;2.10;;
48765;SDS011;65794;51.836;5.002;2023-07-30T00:06:52;10.18;;;1.90;;
48765;SDS011;65794;51.836;5.002;2023-07-30T00:09:19;11.50;;;1.90;;
48765;SDS011;65794;51.836;5.002;2023-07-30T00:11:46;5.68;;;1.55;;
48765;SDS011;65794;51.836;5.002;2023-07-30T00:14:13;10.82;;;1.88;;
48765;SDS011;65794;51.836;5.002;2023-07-30T00:16:42;5.93;;;2.10;;
48765;SDS011;65794;51.836;5.002;2023-07-30T00:19:11;13.00;;;2.10;;
48765;SDS011;65794;51.836;5.002;2023-07-30T00:21:38;17.33;;;2.20;;
48765;SDS011;65794;51.836;5.002;2023-07-30T00:24:06;13.70;;;2.00;;
48765;SDS011;65794;51.836;5.002;2023-07-30T00:26:33;9.35;;;1.80;;
48765;SDS011;65794;51.836;5.002;2023-07-30T00:29:00;12.50;;;2.10;;
48765;SDS011;65794;51.836;5.002;2023-07-30T00:31:27;9.73;;;2.00;;
48765;SDS011;65794;51.836;5.002;2023-07-30T00:33:54;8.68;;;2.30;;
48765;SDS011;65794;51.836;5.002;2023-07-30T00:36:21;11.93;;;1.90;;
48765;SDS011;65794;51.836;5.002;2023-07-30T00:38:48;9.93;;;1.73;;
48765;SDS011;65794;51.836;5.002;2023-07-30T00:41:15;10.90;;;1.92;;
48765;SDS011;65794;51.836;5.002;2023-07-30T00:43:42;14.25;;;2.45;;
48765;SDS011;65794;51.836;5.002;2023-07-30T00:46:08;12.18;;;2.03;;
48765;SDS011;65794;51.836;5.002;2023-07-30T00:48:36;9.75;;;2.47;;
48765;SDS011;65794;51.836;5.002;2023-07-30T00:51:03;8.82;;;1.88;;
48765;SDS011;65794;51.836;5.002;2023-07-30T00:53:31;10.80;;;2.10;;
48765;SDS011;65794;51.836;5.002;2023-07-30T00:55:58;8.45;;;2.25;;
48765;SDS011;65794;51.836;5.002;2023-07-30T00:58:24;11.73;;;2.58;;
48765;SDS011;65794;51.836;5.002;2023-07-30T01:00:51;10.70;;;2.15;;
48765;SDS011;65794;51.836;5.002;2023-07-30T01:03:19;8.38;;;2.05;;
48765;SDS011;65794;51.836;5.002;2023-07-30T01:05:48;6.60;;;1.88;;
48765;SDS011;65794;51.836;5.002;2023-07-30T01:08:15;13.43;;;2.17;;
48765;SDS011;65794;51.836;5.002;2023-07-30T01:10:42;10.43;;;2.33;;
48765;SDS011;65794;51.836;5.002;2023-07-30T01:13:10;11.10;;;2.20;;
48765;SDS011;65794;51.836;5.002;2023-07-30T01:15:37;12.35;;;2.45;;
48765;SDS011;65794;51.836;5.002;2023-07-30T01:18:04;10.75;;;2.00;;
48765;SDS011;65794;51.836;5.002;2023-07-30T01:20:31;8.82;;;2.45;;
48765;SDS011;65794;51.836;5.002;2023-07-30T01:23:01;13.20;;;2.50;;
48765;SDS011;65794;51.836;5.002;2023-07-30T01:25:29;16.05;;;2.50;;
48765;SDS011;65794;51.836;5.002;2023-07-30T01:27:58;21.52;;;2.63;;
48765;SDS011;65794;51.836;5.002;2023-07-30T01:30:32;12.15;;;2.40;;
48765;SDS011;65794;51.836;5.002;2023-07-30T01:33:00;13.23;;;2.40;;
48765;SDS011;65794;51.836;5.002;2023-07-30T01:35:28;12.35;;;2.35;;
48765;SDS011;65794;51.836;5.002;2023-07-30T01:37:55;12.13;;;2.08;;
48765;SDS011;65794;51.836;5.002;2023-07-30T01:40:22;19.63;;;2.63;;
48765;SDS011;65794;51.836;5.002;2023-07-30T01:42:49;16.80;;;3.53;;
48765;SDS011;65794;51.836;5.002;2023-07-30T01:45:17;12.13;;;2.65;;
48765;SDS011;65794;51.836;5.002;2023-07-30T01:47:44;15.25;;;2.20;;
48765;SDS011;65794;51.836;5.002;2023-07-30T01:50:11;9.65;;;2.50;;
48765;SDS011;65794;51.836;5.002;2023-07-30T01:52:38;13.73;;;2.85;;
48765;SDS011;65794;51.836;5.002;2023-07-30T01:55:05;9.30;;;2.20;;
48765;SDS011;65794;51.836;5.002;2023-07-30T01:57:32;12.98;;;2.80;;
48765;SDS011;65794;51.836;5.002;2023-07-30T01:59:59;14.15;;;3.08;;
48765;SDS011;65794;51.836;5.002;2023-07-30T02:02:26;16.42;;;3.00;;
48765;SDS011;65794;51.836;5.002;2023-07-30T02:04:53;16.25;;;3.25;;
48765;SDS011;65794;51.836;5.002;2023-07-30T02:07:20;10.80;;;3.15;;
48765;SDS011;65794;51.836;5.002;2023-07-30T02:09:47;15.50;;;3.55;;
48765;SDS011;65794;51.836;5.002;2023-07-30T02:12:14;14.57;;;3.20;;
48765;SDS011;65794;51.836;5.002;2023-07-30T02:14:41;13.20;;;2.88;;
48765;SDS011;65794;51.836;5.002;2023-07-30T02:17:08;18.67;;;3.95;;
48765;SDS011;65794;51.836;5.002;2023-07-30T02:19:35;13.73;;;3.10;;
48765;SDS011;65794;51.836;5.002;2023-07-30T02:22:02;19.02;;;3.53;;
48765;SDS011;65794;51.836;5.002;2023-07-30T02:24:28;16.10;;;3.40;;
48765;SDS011;65794;51.836;5.002;2023-07-30T02:26:55;17.63;;;4.28;;
48765;SDS011;65794;51.836;5.002;2023-07-30T02:29:22;26.45;;;4.47;;
48765;SDS011;65794;51.836;5.002;2023-07-30T02:31:50;20.92;;;4.32;;
48765;SDS011;65794;51.836;5.002;2023-07-30T02:34:17;19.30;;;4.25;;
48765;SDS011;65794;51.836;5.002;2023-07-30T02:36:43;22.85;;;4.93;;
48765;SDS011;65794;51.836;5.002;2023-07-30T02:39:10;27.30;;;4.43;;
48765;SDS011;65794;51.836;5.002;2023-07-30T02:41:37;20.17;;;4.70;;
48765;SDS011;65794;51.836;5.002;2023-07-30T02:44:04;20.63;;;4.88;;
48765;SDS011;65794;51.836;5.002;2023-07-30T02:46:31;27.02;;;6.03;;
48765;SDS011;65794;51.836;5.002;2023-07-30T02:48:58;23.65;;;4.65;;
48765;SDS011;65794;51.836;5.002;2023-07-30T02:51:25;24.45;;;4.97;;
48765;SDS011;65794;51.836;5.002;2023-07-30T02:53:52;34.67;;;6.13;;
48765;SDS011;65794;51.836;5.002;2023-07-30T02:56:20;19.65;;;4.90;;
48765;SDS011;65794;51.836;5.002;2023-07-30T02:58:47;23.52;;;5.80;;
48765;SDS011;65794;51.836;5.002;2023-07-30T03:01:14;25.85;;;5.85;;
48765;SDS011;65794;51.836;5.002;2023-07-30T03:03:41;26.85;;;5.35;;
48765;SDS011;65794;51.836;5.002;2023-07-30T03:06:08;25.08;;;5.50;;
48765;SDS011;65794;51.836;5.002;2023-07-30T03:08:35;28.13;;;5.78;;
48765;SDS011;65794;51.836;5.002;2023-07-30T03:11:02;22.30;;;5.22;;
48765;SDS011;65794;51.836;5.002;2023-07-30T03:13:29;24.20;;;5.43;;
48765;SDS011;65794;51.836;5.002;2023-07-30T03:15:56;16.13;;;4.95;;
48765;SDS011;65794;51.836;5.002;2023-07-30T03:18:23;21.70;;;4.32;;
48765;SDS011;65794;51.836;5.002;2023-07-30T03:20:50;23.10;;;5.75;;
48765;SDS011;65794;51.836;5.002;2023-07-30T03:23:17;24.23;;;5.57;;
48765;SDS011;65794;51.836;5.002;2023-07-30T03:25:44;31.52;;;5.57;;
48765;SDS011;65794;51.836;5.002;2023-07-30T03:28:11;32.67;;;5.70;;
48765;SDS011;65794;51.836;5.002;2023-07-30T03:30:38;26.73;;;6.22;;
48765;SDS011;65794;51.836;5.002;2023-07-30T03:33:05;32.60;;;5.60;;
48765;SDS011;65794;51.836;5.002;2023-07-30T03:35:32;34.47;;;6.20;;
48765;SDS011;65794;51.836;5.002;2023-07-30T03:37:59;26.98;;;6.53;;
48765;SDS011;65794;51.836;5.002;2023-07-30T03:40:26;26.92;;;5.95;;
48765;SDS011;65794;51.836;5.002;2023-07-30T03:42:53;25.10;;;6.50;;
48765;SDS011;65794;51.836;5.002;2023-07-30T03:45:20;25.70;;;5.28;;
48765;SDS011;65794;51.836;5.002;2023-07-30T03:47:47;30.00;;;6.32;;
48765;SDS011;65794;51.836;5.002;2023-07-30T03:50:14;32.67;;;8.13;;
48765;SDS011;65794;51.836;5.002;2023-07-30T03:52:41;29.63;;;6.28;;
48765;SDS011;65794;51.836;5.002;2023-07-30T03:55:08;31.95;;;7.43;;
48765;SDS011;65794;51.836;5.002;2023-07-30T03:57:36;29.13;;;7.40;;
48765;SDS011;65794;51.836;5.002;2023-07-30T04:00:03;24.88;;;6.55;;
48765;SDS011;65794;51.836;5.002;2023-07-30T04:02:39;30.73;;;6.97;;
48765;SDS011;65794;51.836;5.002;2023-07-30T04:05:06;37.92;;;8.27;;
48765;SDS011;65794;51.836;5.002;2023-07-30T04:07:34;31.20;;;7.55;;
48765;SDS011;65794;51.836;5.002;2023-07-30T04:10:00;32.30;;;8.45;;
48765;SDS011;65794;51.836;5.002;2023-07-30T04:12:28;33.03;;;7.88;;
48765;SDS011;65794;51.836;5.002;2023-07-30T04:14:55;32.97;;;8.50;;
48765;SDS011;65794;51.836;5.002;2023-07-30T04:17:22;30.73;;;8.15;;
48765;SDS011;65794;51.836;5.002;2023-07-30T04:19:49;36.00;;;7.60;;
48765;SDS011;65794;51.836;5.002;2023-07-30T04:22:16;25.85;;;8.18;;
48765;SDS011;65794;51.836;5.002;2023-07-30T04:24:43;26.30;;;7.57;;
48765;SDS011;65794;51.836;5.002;2023-07-30T04:27:09;23.05;;;6.90;;
48765;SDS011;65794;51.836;5.002;2023-07-30T04:29:36;25.58;;;6.43;;
48765;SDS011;65794;51.836;5.002;2023-07-30T04:32:04;27.35;;;7.80;;
48765;SDS011;65794;51.836;5.002;2023-07-30T04:34:31;29.85;;;7.55;;
48765;SDS011;65794;51.836;5.002;2023-07-30T04:36:59;30.00;;;7.55;;
48765;SDS011;65794;51.836;5.002;2023-07-30T04:39:26;31.83;;;7.28;;
48765;SDS011;65794;51.836;5.002;2023-07-30T04:41:53;24.27;;;7.57;;
48765;SDS011;65794;51.836;5.002;2023-07-30T04:44:20;35.58;;;8.18;;
48765;SDS011;65794;51.836;5.002;2023-07-30T04:46:47;30.85;;;8.00;;
48765;SDS011;65794;51.836;5.002;2023-07-30T04:49:14;28.10;;;7.13;;
48765;SDS011;65794;51.836;5.002;2023-07-30T04:51:41;27.75;;;6.78;;
48765;SDS011;65794;51.836;5.002;2023-07-30T04:54:08;30.25;;;8.05;;
48765;SDS011;65794;51.836;5.002;2023-07-30T04:56:35;23.65;;;7.45;;
48765;SDS011;65794;51.836;5.002;2023-07-30T04:59:02;25.63;;;6.88;;
48765;SDS011;65794;51.836;5.002;2023-07-30T05:01:29;34.67;;;7.95;;
48765;SDS011;65794;51.836;5.002;2023-07-30T05:03:57;24.23;;;7.18;;
48765;SDS011;65794;51.836;5.002;2023-07-30T05:06:24;32.30;;;7.75;;
48765;SDS011;65794;51.836;5.002;2023-07-30T05:08:51;37.13;;;7.10;;
48765;SDS011;65794;51.836;5.002;2023-07-30T05:11:18;26.73;;;7.32;;
48765;SDS011;65794;51.836;5.002;2023-07-30T05:13:44;32.45;;;8.32;;
48765;SDS011;65794;51.836;5.002;2023-07-30T05:16:12;31.55;;;7.72;;
48765;SDS011;65794;51.836;5.002;2023-07-30T05:18:38;24.80;;;7.70;;
48765;SDS011;65794;51.836;5.002;2023-07-30T05:21:06;33.15;;;8.55;;
48765;SDS011;65794;51.836;5.002;2023-07-30T05:23:32;27.08;;;8.30;;
48765;SDS011;65794;51.836;5.002;2023-07-30T05:26:00;29.63;;;8.32;;
48765;SDS011;65794;51.836;5.002;2023-07-30T05:28:26;30.58;;;7.00;;
48765;SDS011;65794;51.836;5.002;2023-07-30T05:30:53;28.50;;;7.72;;
48765;SDS011;65794;51.836;5.002;2023-07-30T05:33:20;25.50;;;7.43;;
48765;SDS011;65794;51.836;5.002;2023-07-30T05:35:47;28.40;;;8.20;;
48765;SDS011;65794;51.836;5.002;2023-07-30T05:38:14;37.25;;;7.90;;
48765;SDS011;65794;51.836;5.002;2023-07-30T05:40:41;23.00;;;7.03;;
48765;SDS011;65794;51.836;5.002;2023-07-30T05:43:08;25.02;;;7.10;;
48765;SDS011;65794;51.836;5.002;2023-07-30T05:45:36;23.08;;;6.93;;
48765;SDS011;65794;51.836;5.002;2023-07-30T05:48:03;35.78;;;7.78;;
48765;SDS011;65794;51.836;5.002;2023-07-30T05:50:30;22.77;;;7.03;;
48765;SDS011;65794;51.836;5.002;2023-07-30T05:52:56;29.65;;;6.63;;
48765;SDS011;65794;51.836;5.002;2023-07-30T05:55:23;29.27;;;8.18;;
48765;SDS011;65794;51.836;5.002;2023-07-30T05:57:50;25.65;;;7.60;;
48765;SDS011;65794;51.836;5.002;2023-07-30T06:00:17;33.45;;;7.32;;
48765;SDS011;65794;51.836;5.002;2023-07-30T06:02:44;27.42;;;7.07;;
48765;SDS011;65794;51.836;5.002;2023-07-30T06:05:11;26.50;;;7.15;;
48765;SDS011;65794;51.836;5.002;2023-07-30T06:07:38;27.42;;;7.88;;
48765;SDS011;65794;51.836;5.002;2023-07-30T06:10:05;24.38;;;6.35;;
48765;SDS011;65794;51.836;5.002;2023-07-30T06:12:32;32.13;;;6.88;;
48765;SDS011;65794;51.836;5.002;2023-07-30T06:14:59;28.67;;;6.65;;
48765;SDS011;65794;51.836;5.002;2023-07-30T06:17:26;23.77;;;6.60;;
48765;SDS011;65794;51.836;5.002;2023-07-30T06:19:53;30.55;;;7.28;;
48765;SDS011;65794;51.836;5.002;2023-07-30T06:22:20;26.55;;;6.72;;
48765;SDS011;65794;51.836;5.002;2023-07-30T06:24:47;21.70;;;6.88;;
48765;SDS011;65794;51.836;5.002;2023-07-30T06:27:14;25.00;;;6.78;;
48765;SDS011;65794;51.836;5.002;2023-07-30T06:29:41;26.50;;;7.35;;
48765;SDS011;65794;51.836;5.002;2023-07-30T06:32:08;21.65;;;6.25;;
48765;SDS011;65794;51.836;5.002;2023-07-30T06:34:36;19.80;;;5.55;;
48765;SDS011;65794;51.836;5.002;2023-07-30T06:37:03;20.55;;;4.95;;
48765;SDS011;65794;51.836;5.002;2023-07-30T06:39:30;23.75;;;4.45;;
48765;SDS011;65794;51.836;5.002;2023-07-30T06:41:57;19.50;;;4.80;;
48765;SDS011;65794;51.836;5.002;2023-07-30T06:44:24;15.95;;;4.50;;
48765;SDS011;65794;51.836;5.002;2023-07-30T06:46:52;17.48;;;4.30;;
48765;SDS011;65794;51.836;5.002;2023-07-30T06:49:19;15.43;;;3.80;;
48765;SDS011;65794;51.836;5.002;2023-07-30T06:51:46;16.40;;;3.22;;
48765;SDS011;65794;51.836;5.002;2023-07-30T06:54:13;19.75;;;4.07;;
48765;SDS011;65794;51.836;5.002;2023-07-30T06:56:40;13.80;;;3.72;;
48765;SDS011;65794;51.836;5.002;2023-07-30T06:59:06;16.65;;;3.60;;
48765;SDS011;65794;51.836;5.002;2023-07-30T07:01:33;19.23;;;4.05;;
48765;SDS011;65794;51.836;5.002;2023-07-30T07:04:00;17.50;;;3.90;;
48765;SDS011;65794;51.836;5.002;2023-07-30T07:06:27;21.80;;;4.03;;
48765;SDS011;65794;51.836;5.002;2023-07-30T07:08:54;22.23;;;4.07;;
48765;SDS011;65794;51.836;5.002;2023-07-30T07:11:21;23.98;;;4.70;;
48765;SDS011;65794;51.836;5.002;2023-07-30T07:13:48;20.52;;;4.30;;
48765;SDS011;65794;51.836;5.002;2023-07-30T07:16:15;22.30;;;4.97;;
48765;SDS011;65794;51.836;5.002;2023-07-30T07:18:42;25.00;;;4.75;;
48765;SDS011;65794;51.836;5.002;2023-07-30T07:21:10;19.00;;;5.18;;
48765;SDS011;65794;51.836;5.002;2023-07-30T07:23:37;27.52;;;5.22;;
48765;SDS011;65794;51.836;5.002;2023-07-30T07:26:04;25.27;;;4.95;;
48765;SDS011;65794;51.836;5.002;2023-07-30T07:28:31;24.05;;;5.32;;
48765;SDS011;65794;51.836;5.002;2023-07-30T07:30:58;27.73;;;5.43;;
48765;SDS011;65794;51.836;5.002;2023-07-30T07:33:25;27.40;;;5.20;;
48765;SDS011;65794;51.836;5.002;2023-07-30T07:36:02;17.27;;;4.47;;
48765;SDS011;65794;51.836;5.002;2023-07-30T07:38:31;30.02;;;5.03;;
48765;SDS011;65794;51.836;5.002;2023-07-30T07:40:58;13.90;;;4.32;;
48765;SDS011;65794;51.836;5.002;2023-07-30T07:43:25;21.67;;;3.92;;
48765;SDS011;65794;51.836;5.002;2023-07-30T07:45:53;18.95;;;4.65;;
48765;SDS011;65794;51.836;5.002;2023-07-30T07:48:20;21.33;;;4.25;;
48765;SDS011;65794;51.836;5.002;2023-07-30T07:50:47;33.53;;;12.02;;
48765;SDS011;65794;51.836;5.002;2023-07-30T07:53:14;19.33;;;4.75;;
48765;SDS011;65794;51.836;5.002;2023-07-30T07:55:41;18.23;;;3.63;;
48765;SDS011;65794;51.836;5.002;2023-07-30T07:58:08;16.30;;;3.25;;
48765;SDS011;65794;51.836;5.002;2023-07-30T08:00:35;22.50;;;4.43;;
48765;SDS011;65794;51.836;5.002;2023-07-30T08:03:02;20.05;;;3.67;;
48765;SDS011;65794;51.836;5.002;2023-07-30T08:05:29;16.85;;;3.78;;
48765;SDS011;65794;51.836;5.002;2023-07-30T08:07:56;22.55;;;3.58;;
48765;SDS011;65794;51.836;5.002;2023-07-30T08:10:22;21.05;;;4.47;;
48765;SDS011;65794;51.836;5.002;2023-07-30T08:12:49;19.95;;;4.25;;
48765;SDS011;65794;51.836;5.002;2023-07-30T08:15:16;17.27;;;3.35;;
48765;SDS011;65794;51.836;5.002;2023-07-30T08:17:43;12.73;;;3.00;;
48765;SDS011;65794;51.836;5.002;2023-07-30T08:20:10;15.45;;;3.53;;
48765;SDS011;65794;51.836;5.002;2023-07-30T08:22:37;16.33;;;3.75;;
48765;SDS011;65794;51.836;5.002;2023-07-30T08:25:04;14.38;;;3.00;;
48765;SDS011;65794;51.836;5.002;2023-07-30T08:27:31;15.60;;;3.90;;
48765;SDS011;65794;51.836;5.002;2023-07-30T08:29:58;18.08;;;4.28;;
48765;SDS011;65794;51.836;5.002;2023-07-30T08:32:25;16.63;;;3.55;;
48765;SDS011;65794;51.836;5.002;2023-07-30T08:34:52;21.52;;;4.15;;
48765;SDS011;65794;51.836;5.002;2023-07-30T08:37:19;27.88;;;4.55;;
48765;SDS011;65794;51.836;5.002;2023-07-30T08:39:46;22.35;;;4.15;;
48765;SDS011;65794;51.836;5.002;2023-07-30T08:42:15;22.05;;;4.45;;
48765;SDS011;65794;51.836;5.002;2023-07-30T08:44:42;12.93;;;3.65;;
48765;SDS011;65794;51.836;5.002;2023-07-30T08:47:10;11.10;;;3.30;;
48765;SDS011;65794;51.836;5.002;2023-07-30T08:49:37;19.20;;;4.43;;
48765;SDS011;65794;51.836;5.002;2023-07-30T08:52:04;14.02;;;3.90;;
48765;SDS011;65794;51.836;5.002;2023-07-30T08:54:34;19.38;;;3.53;;
48765;SDS011;65794;51.836;5.002;2023-07-30T08:57:05;16.65;;;3.58;;
48765;SDS011;65794;51.836;5.002;2023-07-30T08:59:40;17.92;;;3.85;;
48765;SDS011;65794;51.836;5.002;2023-07-30T09:02:09;12.82;;;3.08;;
48765;SDS011;65794;51.836;5.002;2023-07-30T09:04:39;20.58;;;3.40;;
48765;SDS011;65794;51.836;5.002;2023-07-30T09:07:11;14.48;;;2.72;;
48765;SDS011;65794;51.836;5.002;2023-07-30T09:09:38;15.15;;;2.55;;
48765;SDS011;65794;51.836;5.002;2023-07-30T09:12:12;11.77;;;2.50;;
48765;SDS011;65794;51.836;5.002;2023-07-30T09:14:39;12.48;;;2.53;;
48765;SDS011;65794;51.836;5.002;2023-07-30T09:17:06;11.93;;;2.22;;
48765;SDS011;65794;51.836;5.002;2023-07-30T09:19:36;8.77;;;1.75;;
48765;SDS011;65794;51.836;5.002;2023-07-30T09:22:04;15.35;;;2.85;;
48765;SDS011;65794;51.836;5.002;2023-07-30T09:24:31;11.30;;;2.00;;
48765;SDS011;65794;51.836;5.002;2023-07-30T09:27:01;10.13;;;1.95;;
48765;SDS011;65794;51.836;5.002;2023-07-30T09:29:28;12.18;;;1.65;;
48765;SDS011;65794;51.836;5.002;2023-07-30T09:31:55;11.60;;;2.47;;
48765;SDS011;65794;51.836;5.002;2023-07-30T09:34:22;10.80;;;1.52;;
48765;SDS011;65794;51.836;5.002;2023-07-30T09:36:50;5.15;;;1.20;;
48765;SDS011;65794;51.836;5.002;2023-07-30T09:39:22;8.50;;;1.50;;
48765;SDS011;65794;51.836;5.002;2023-07-30T09:41:52;11.10;;;1.67;;
48765;SDS011;65794;51.836;5.002;2023-07-30T09:44:20;9.95;;;2.05;;
48765;SDS011;65794;51.836;5.002;2023-07-30T09:46:49;14.43;;;2.42;;
48765;SDS011;65794;51.836;5.002;2023-07-30T09:49:16;10.48;;;1.73;;
48765;SDS011;65794;51.836;5.002;2023-07-30T09:51:43;11.63;;;2.22;;
48765;SDS011;65794;51.836;5.002;2023-07-30T09:54:11;7.90;;;1.65;;
48765;SDS011;65794;51.836;5.002;2023-07-30T09:56:39;16.48;;;2.33;;
48765;SDS011;65794;51.836;5.002;2023-07-30T09:59:07;9.73;;;2.25;;
48765;SDS011;65794;51.836;5.002;2023-07-30T10:01:40;9.98;;;2.30;;
48765;SDS011;65794;51.836;5.002;2023-07-30T10:04:09;12.20;;;2.10;;
48765;SDS011;65794;51.836;5.002;2023-07-30T10:06:41;10.77;;;1.58;;
48765;SDS011;65794;51.836;5.002;2023-07-30T10:09:10;8.02;;;1.52;;
48765;SDS011;65794;51.836;5.002;2023-07-30T10:11:39;10.43;;;1.88;;
48765;SDS011;65794;51.836;5.002;2023-07-30T10:14:06;8.18;;;1.48;;
48765;SDS011;65794;51.836;5.002;2023-07-30T10:16:34;8.23;;;1.35;;
48765;SDS011;65794;51.836;5.002;2023-07-30T10:19:01;12.05;;;1.95;;
48765;SDS011;65794;51.836;5.002;2023-07-30T10:21:28;11.15;;;1.63;;
48765;SDS011;65794;51.836;5.002;2023-07-30T10:24:00;12.23;;;1.90;;
48765;SDS011;65794;51.836;5.002;2023-07-30T10:26:30;8.65;;;1.33;;
48765;SDS011;65794;51.836;5.002;2023-07-30T10:29:09;5.20;;;1.30;;
48765;SDS011;65794;51.836;5.002;2023-07-30T10:31:41;8.27;;;1.10;;
48765;SDS011;65794;51.836;5.002;2023-07-30T10:34:10;10.75;;;1.13;;
48765;SDS011;65794;51.836;5.002;2023-07-30T10:36:47;10.95;;;1.27;;
48765;SDS011;65794;51.836;5.002;2023-07-30T10:39:19;7.78;;;1.33;;
48765;SDS011;65794;51.836;5.002;2023-07-30T10:41:48;11.15;;;1.73;;
48765;SDS011;65794;51.836;5.002;2023-07-30T10:44:20;7.20;;;1.23;;
48765;SDS011;65794;51.836;5.002;2023-07-30T10:46:48;9.30;;;1.35;;
48765;SDS011;65794;51.836;5.002;2023-07-30T10:49:15;5.85;;;0.85;;
48765;SDS011;65794;51.836;5.002;2023-07-30T10:51:42;8.63;;;1.40;;
48765;SDS011;65794;51.836;5.002;2023-07-30T10:54:09;5.20;;;1.40;;
48765;SDS011;65794;51.836;5.002;2023-07-30T10:56:37;6.05;;;0.98;;
48765;SDS011;65794;51.836;5.002;2023-07-30T10:59:05;7.50;;;1.00;;
48765;SDS011;65794;51.836;5.002;2023-07-30T11:01:40;8.90;;;1.15;;
48765;SDS011;65794;51.836;5.002;2023-07-30T11:04:18;8.98;;;1.05;;
48765;SDS011;65794;51.836;5.002;2023-07-30T11:06:46;4.22;;;0.88;;
48765;SDS011;65794;51.836;5.002;2023-07-30T11:09:20;5.82;;;1.23;;
48765;SDS011;65794;51.836;5.002;2023-07-30T11:11:48;6.82;;;2.25;;
48765;SDS011;65794;51.836;5.002;2023-07-30T11:14:18;5.30;;;0.88;;
48765;SDS011;65794;51.836;5.002;2023-07-30T11:16:49;5.15;;;0.98;;
48765;SDS011;65794;51.836;5.002;2023-07-30T11:19:18;9.68;;;0.85;;
48765;SDS011;65794;51.836;5.002;2023-07-30T11:21:45;6.75;;;0.93;;
48765;SDS011;65794;51.836;5.002;2023-07-30T11:24:12;5.15;;;0.40;;
48765;SDS011;65794;51.836;5.002;2023-07-30T11:26:39;5.22;;;0.68;;
48765;SDS011;65794;51.836;5.002;2023-07-30T11:31:43;5.60;;;0.88;;
48765;SDS011;65794;51.836;5.002;2023-07-30T11:34:10;12.15;;;0.95;;
48765;SDS011;65794;51.836;5.002;2023-07-30T11:36:38;3.00;;;0.52;;
48765;SDS011;65794;51.836;5.002;2023-07-30T11:39:05;9.32;;;0.88;;
48765;SDS011;65794;51.836;5.002;2023-07-30T11:41:32;2.83;;;0.60;;
48765;SDS011;65794;51.836;5.002;2023-07-30T11:44:00;4.78;;;0.75;;
48765;SDS011;65794;51.836;5.002;2023-07-30T11:46:27;2.80;;;0.60;;
48765;SDS011;65794;51.836;5.002;2023-07-30T11:49:09;7.35;;;1.05;;
48765;SDS011;65794;51.836;5.002;2023-07-30T11:51:36;5.43;;;0.90;;
48765;SDS011;65794;51.836;5.002;2023-07-30T11:54:03;8.48;;;1.50;;
48765;SDS011;65794;51.836;5.002;2023-07-30T11:56:33;5.63;;;1.23;;
48765;SDS011;65794;51.836;5.002;2023-07-30T11:59:01;8.32;;;1.30;;
48765;SDS011;65794;51.836;5.002;2023-07-30T12:01:31;6.40;;;1.08;;
48765;SDS011;65794;51.836;5.002;2023-07-30T12:03:59;9.05;;;1.23;;
48765;SDS011;65794;51.836;5.002;2023-07-30T12:09:19;8.65;;;1.00;;
48765;SDS011;65794;51.836;5.002;2023-07-30T12:11:56;9.00;;;0.90;;
48765;SDS011;65794;51.836;5.002;2023-07-30T12:15:09;3.92;;;0.77;;
48765;SDS011;65794;51.836;5.002;2023-07-30T12:17:13;6.22;;;2.17;;
48765;SDS011;65794;51.836;5.002;2023-07-30T12:19:41;6.80;;;1.05;;
48765;SDS011;65794;51.836;5.002;2023-07-30T12:22:08;6.72;;;0.80;;
48765;SDS011;65794;51.836;5.002;2023-07-30T12:24:35;7.45;;;0.80;;
48765;SDS011;65794;51.836;5.002;2023-07-30T12:27:02;4.30;;;0.70;;
48765;SDS011;65794;51.836;5.002;2023-07-30T12:29:29;6.68;;;0.70;;
48765;SDS011;65794;51.836;5.002;2023-07-30T12:31:56;5.03;;;0.60;;
48765;SDS011;65794;51.836;5.002;2023-07-30T12:34:23;4.72;;;0.63;;
48765;SDS011;65794;51.836;5.002;2023-07-30T12:36:50;5.85;;;0.50;;
48765;SDS011;65794;51.836;5.002;2023-07-30T12:39:17;2.63;;;0.60;;
48765;SDS011;65794;51.836;5.002;2023-07-30T12:41:44;4.25;;;0.80;;
48765;SDS011;65794;51.836;5.002;2023-07-30T12:44:11;8.48;;;0.70;;
48765;SDS011;65794;51.836;5.002;2023-07-30T12:46:38;3.78;;;0.60;;
48765;SDS011;65794;51.836;5.002;2023-07-30T12:49:05;3.35;;;0.60;;
48765;SDS011;65794;51.836;5.002;2023-07-30T12:51:32;10.55;;;0.63;;
48765;SDS011;65794;51.836;5.002;2023-07-30T12:53:59;5.93;;;0.55;;
48765;SDS011;65794;51.836;5.002;2023-07-30T12:56:26;4.15;;;0.65;;
48765;SDS011;65794;51.836;5.002;2023-07-30T12:58:53;4.25;;;0.70;;
48765;SDS011;65794;51.836;5.002;2023-07-30T13:01:20;4.80;;;0.50;;
48765;SDS011;65794;51.836;5.002;2023-07-30T13:03:47;5.30;;;0.57;;
48765;SDS011;65794;51.836;5.002;2023-07-30T13:06:15;6.68;;;0.70;;
48765;SDS011;65794;51.836;5.002;2023-07-30T13:08:44;3.20;;;0.38;;
48765;SDS011;65794;51.836;5.002;2023-07-30T13:11:11;2.33;;;0.60;;
48765;SDS011;65794;51.836;5.002;2023-07-30T13:13:38;4.88;;;0.70;;
48765;SDS011;65794;51.836;5.002;2023-07-30T13:16:05;2.67;;;0.50;;
48765;SDS011;65794;51.836;5.002;2023-07-30T13:18:32;3.42;;;0.63;;
48765;SDS011;65794;51.836;5.002;2023-07-30T13:20:58;4.05;;;0.60;;
48765;SDS011;65794;51.836;5.002;2023-07-30T13:23:26;7.45;;;0.50;;
48765;SDS011;65794;51.836;5.002;2023-07-30T13:25:53;4.82;;;0.93;;
48765;SDS011;65794;51.836;5.002;2023-07-30T13:28:20;3.35;;;0.60;;
48765;SDS011;65794;51.836;5.002;2023-07-30T13:30:47;3.85;;;0.60;;
48765;SDS011;65794;51.836;5.002;2023-07-30T13:33:14;3.47;;;0.80;;
48765;SDS011;65794;51.836;5.002;2023-07-30T13:35:41;6.25;;;0.80;;
48765;SDS011;65794;51.836;5.002;2023-07-30T13:38:08;3.80;;;0.80;;
48765;SDS011;65794;51.836;5.002;2023-07-30T13:40:35;2.65;;;0.68;;
48765;SDS011;65794;51.836;5.002;2023-07-30T13:43:01;6.28;;;1.00;;
48765;SDS011;65794;51.836;5.002;2023-07-30T13:45:29;4.82;;;0.70;;
48765;SDS011;65794;51.836;5.002;2023-07-30T13:47:56;3.75;;;0.75;;
48765;SDS011;65794;51.836;5.002;2023-07-30T13:50:23;5.40;;;0.90;;
48765;SDS011;65794;51.836;5.002;2023-07-30T13:52:50;7.85;;;1.00;;
48765;SDS011;65794;51.836;5.002;2023-07-30T13:55:17;5.75;;;0.80;;
48765;SDS011;65794;51.836;5.002;2023-07-30T13:57:44;4.28;;;0.60;;
48765;SDS011;65794;51.836;5.002;2023-07-30T14:00:11;5.57;;;0.77;;
48765;SDS011;65794;51.836;5.002;2023-07-30T14:02:39;5.18;;;0.88;;
48765;SDS011;65794;51.836;5.002;2023-07-30T14:05:06;7.30;;;0.90;;
48765;SDS011;65794;51.836;5.002;2023-07-30T14:07:33;6.43;;;0.80;;
48765;SDS011;65794;51.836;5.002;2023-07-30T14:10:01;4.47;;;0.85;;
48765;SDS011;65794;51.836;5.002;2023-07-30T14:12:28;6.15;;;0.90;;
48765;SDS011;65794;51.836;5.002;2023-07-30T14:14:55;13.43;;;1.30;;
48765;SDS011;65794;51.836;5.002;2023-07-30T14:17:22;7.80;;;1.40;;
48765;SDS011;65794;51.836;5.002;2023-07-30T14:19:49;5.55;;;1.00;;
48765;SDS011;65794;51.836;5.002;2023-07-30T14:22:16;9.07;;;1.20;;
48765;SDS011;65794;51.836;5.002;2023-07-30T14:24:43;6.45;;;1.50;;
48765;SDS011;65794;51.836;5.002;2023-07-30T14:27:11;9.73;;;1.23;;
48765;SDS011;65794;51.836;5.002;2023-07-30T14:29:38;8.48;;;1.20;;
48765;SDS011;65794;51.836;5.002;2023-07-30T14:32:05;5.85;;;1.10;;
48765;SDS011;65794;51.836;5.002;2023-07-30T14:34:32;5.18;;;1.10;;
48765;SDS011;65794;51.836;5.002;2023-07-30T14:36:59;6.88;;;0.95;;
48765;SDS011;65794;51.836;5.002;2023-07-30T14:39:26;6.65;;;1.55;;
48765;SDS011;65794;51.836;5.002;2023-07-30T14:41:53;9.68;;;1.08;;
48765;SDS011;65794;51.836;5.002;2023-07-30T14:44:20;5.22;;;1.48;;
48765;SDS011;65794;51.836;5.002;2023-07-30T14:46:48;7.07;;;1.65;;